Time;durP1;ratioP1;P1;durP2;ratioP2;P2;SDS_P1;SDS_P2;PMS_P1;PMS_P2;Temp;Humidity;BMP_temperature;BMP_pressure;BME280_temperature;BME280_humidity;BME280_pressure;Samples;Min_cycle;Max_cycle;Signal;HPM_P1;HPM_P2
2021/12/26 00:01:39;;;;;;;10.65;4.72;;;8.70;78.10;;;;;;5074358;28;20028;-80
2021/12/26 00:04:05;;;;;;;11.38;4.30;;;8.70;78.00;;;;;;5072473;28;20435;-80
2021/12/26 00:06:31;;;;;;;14.63;4.20;;;8.70;78.00;;;;;;5073936;28;20031;-80
2021/12/26 00:08:59;;;;;;;8.02;4.18;;;8.70;77.90;;;;;;5073696;28;20024;-80
2021/12/26 00:11:24;;;;;;;10.02;3.60;;;8.70;78.10;;;;;;5072837;28;20020;-80
2021/12/26 00:13:52;;;;;;;9.23;4.45;;;8.70;78.00;;;;;;5072139;28;20021;-79
2021/12/26 00:16:18;;;;;;;10.85;3.97;;;8.60;78.00;;;;;;5072700;28;20074;-80
2021/12/26 00:18:46;;;;;;;13.63;4.25;;;8.70;78.00;;;;;;5072076;28;20024;-81
2021/12/26 00:21:18;;;;;;;13.80;4.03;;;8.70;78.00;;;;;;5072272;28;20405;-80
2021/12/26 00:23:44;;;;;;;12.43;3.88;;;8.70;77.90;;;;;;5072025;28;20017;-81
2021/12/26 00:26:10;;;;;;;15.00;4.82;;;8.70;78.00;;;;;;5073599;28;20051;-80
2021/12/26 00:28:36;;;;;;;10.48;4.28;;;8.70;77.90;;;;;;5072243;28;20474;-82
2021/12/26 00:31:02;;;;;;;10.27;4.05;;;8.70;78.00;;;;;;5077622;28;20024;-80
2021/12/26 00:33:27;;;;;;;11.95;4.18;;;8.60;77.80;;;;;;5076416;28;20026;-81
2021/12/26 00:35:53;;;;;;;12.27;4.22;;;8.70;77.90;;;;;;5076935;28;20028;-82
2021/12/26 00:38:19;;;;;;;11.15;3.80;;;8.70;77.90;;;;;;5077052;28;20493;-81
2021/12/26 00:40:45;;;;;;;11.05;3.78;;;8.70;77.80;;;;;;5078708;28;20028;-82
2021/12/26 00:43:11;;;;;;;8.18;3.90;;;8.60;77.80;;;;;;5076593;28;20082;-81
2021/12/26 00:45:37;;;;;;;9.65;3.85;;;8.70;77.80;;;;;;5076136;28;20028;-80
2021/12/26 00:48:03;;;;;;;10.68;4.13;;;8.70;77.90;;;;;;5076458;28;20021;-81
2021/12/26 00:50:32;;;;;;;8.40;3.78;;;8.70;77.80;;;;;;5075769;28;20589;-79
2021/12/26 00:52:58;;;;;;;10.23;4.00;;;8.70;77.90;;;;;;5075612;28;20104;-82
2021/12/26 00:55:24;;;;;;;8.75;3.90;;;8.70;78.00;;;;;;5074914;28;20115;-80
2021/12/26 00:57:49;;;;;;;7.07;3.65;;;8.60;77.80;;;;;;5075266;28;20055;-80
2021/12/26 01:00:19;;;;;;;8.30;3.92;;;8.60;77.80;;;;;;5074982;28;20029;-80
2021/12/26 01:02:45;;;;;;;7.97;3.88;;;8.60;77.80;;;;;;5075343;28;20025;-82
2021/12/26 01:05:12;;;;;;;8.77;4.07;;;8.60;77.80;;;;;;5076073;28;20103;-78
2021/12/26 01:07:59;;;;;;;8.40;3.95;;;8.60;77.90;;;;;;5074532;28;20119;-80
2021/12/26 01:10:36;;;;;;;8.50;3.95;;;8.60;77.80;;;;;;5075528;28;20075;-81
2021/12/26 01:13:14;;;;;;;8.23;3.75;;;8.60;77.80;;;;;;5075447;28;20521;-80
2021/12/26 01:15:41;;;;;;;12.02;4.00;;;8.60;77.70;;;;;;5074251;28;20070;-80
2021/12/26 01:18:07;;;;;;;11.35;3.78;;;8.60;77.80;;;;;;5073787;28;20037;-80
2021/12/26 01:20:49;;;;;;;7.25;3.47;;;8.60;77.70;;;;;;5075481;28;20051;-80
2021/12/26 01:23:18;;;;;;;10.45;5.05;;;8.60;77.80;;;;;;5073596;28;20036;-80
2021/12/26 01:25:45;;;;;;;8.55;4.07;;;8.60;77.80;;;;;;5074742;28;20123;-81
2021/12/26 01:28:11;;;;;;;7.43;3.65;;;8.60;77.70;;;;;;5074514;28;20401;-80
2021/12/26 01:30:38;;;;;;;8.98;3.65;;;8.60;77.60;;;;;;5072711;28;20031;-80
2021/12/26 01:33:07;;;;;;;9.48;4.40;;;8.60;77.70;;;;;;5074331;28;20150;-80
2021/12/26 01:35:33;;;;;;;11.25;3.63;;;8.60;77.60;;;;;;5072753;28;20077;-81
2021/12/26 01:37:58;;;;;;;13.27;4.25;;;8.60;77.60;;;;;;5073365;28;20024;-80
2021/12/26 01:40:24;;;;;;;13.18;4.00;;;8.60;77.50;;;;;;5075748;28;20029;-82
2021/12/26 01:42:51;;;;;;;8.73;3.72;;;8.60;77.50;;;;;;5076980;28;20482;-82
2021/12/26 01:45:17;;;;;;;9.88;3.80;;;8.60;77.50;;;;;;5077947;28;20387;-82
2021/12/26 01:47:45;;;;;;;7.50;3.33;;;8.60;77.40;;;;;;5081166;28;20063;-81
2021/12/26 01:50:11;;;;;;;8.30;4.00;;;8.60;77.40;;;;;;5079763;28;20128;-81
2021/12/26 01:52:37;;;;;;;8.20;3.45;;;8.60;77.40;;;;;;5081173;28;20056;-81
2021/12/26 01:55:23;;;;;;;8.40;3.42;;;8.60;77.40;;;;;;5080474;28;20024;-80
2021/12/26 01:57:51;;;;;;;8.25;3.28;;;8.60;77.40;;;;;;5079326;28;20063;-80
2021/12/26 02:00:17;;;;;;;6.32;3.35;;;8.60;77.90;;;;;;5079993;28;20025;-81
2021/12/26 02:02:43;;;;;;;6.53;3.25;;;8.60;77.40;;;;;;5078674;28;20107;-80
2021/12/26 02:05:09;;;;;;;9.07;3.30;;;8.60;77.40;;;;;;5078122;28;20033;-80
2021/12/26 02:07:34;;;;;;;8.00;3.60;;;8.60;77.20;;;;;;5079334;28;20717;-81
2021/12/26 02:10:00;;;;;;;7.07;3.30;;;8.60;77.30;;;;;;5077718;28;20470;-82
2021/12/26 02:12:26;;;;;;;6.28;3.28;;;8.60;77.30;;;;;;5077094;28;20031;-80
2021/12/26 02:14:53;;;;;;;6.57;3.15;;;8.50;77.10;;;;;;5078350;28;20027;-80
2021/12/26 02:17:19;;;;;;;6.40;3.17;;;8.50;77.20;;;;;;5077201;28;20021;-82
2021/12/26 02:19:45;;;;;;;7.03;3.10;;;8.60;77.20;;;;;;5077014;28;20089;-81
2021/12/26 02:22:16;;;;;;;6.28;3.10;;;8.60;77.20;;;;;;5076983;28;20029;-81
2021/12/26 02:27:31;;;;;;;7.50;3.42;;;8.60;77.10;;;;;;5078485;28;20036;-81
2021/12/26 02:30:01;;;;;;;6.70;3.03;;;8.60;77.20;;;;;;5075837;28;20500;-80
2021/12/26 02:32:28;;;;;;;5.78;3.13;;;8.60;77.10;;;;;;5077585;28;20451;-80
2021/12/26 02:34:54;;;;;;;5.30;2.90;;;8.60;77.10;;;;;;5075831;28;20389;-81
2021/12/26 02:37:20;;;;;;;5.80;3.28;;;8.50;77.10;;;;;;5077336;28;20017;-79
2021/12/26 02:39:46;;;;;;;6.68;3.40;;;8.60;77.10;;;;;;5076959;28;20029;-80
2021/12/26 02:42:11;;;;;;;6.57;3.08;;;8.60;77.60;;;;;;5075409;28;20036;-81
2021/12/26 02:44:37;;;;;;;6.25;2.60;;;8.60;77.00;;;;;;5076067;28;20074;-79
2021/12/26 02:47:03;;;;;;;7.03;3.13;;;8.50;77.00;;;;;;5076898;28;20024;-80
2021/12/26 02:49:28;;;;;;;6.45;3.05;;;8.50;77.00;;;;;;5076116;28;20041;-81
2021/12/26 02:51:54;;;;;;;6.75;3.17;;;8.50;77.00;;;;;;5075095;28;20162;-80
2021/12/26 02:54:24;;;;;;;6.40;3.00;;;8.50;77.00;;;;;;5074411;28;20103;-80
2021/12/26 02:56:50;;;;;;;6.65;3.13;;;8.50;76.90;;;;;;5073989;28;20016;-80
2021/12/26 02:59:16;;;;;;;7.22;3.33;;;8.50;76.90;;;;;;5073950;28;20078;-81
2021/12/26 03:01:42;;;;;;;9.27;3.17;;;8.50;77.00;;;;;;5074010;28;20025;-81
2021/12/26 03:04:09;;;;;;;7.05;3.50;;;8.50;77.00;;;;;;5074330;28;20032;-80
2021/12/26 03:09:03;;;;;;;6.20;3.30;;;8.50;77.00;;;;;;5075692;28;20020;-80
2021/12/26 03:11:28;;;;;;;7.85;2.88;;;8.50;77.00;;;;;;5073505;28;20028;-80
2021/12/26 03:13:54;;;;;;;7.05;3.00;;;8.50;77.00;;;;;;5073722;28;20394;-80
2021/12/26 03:16:20;;;;;;;8.15;2.90;;;8.50;77.00;;;;;;5073348;28;20078;-80
2021/12/26 03:18:46;;;;;;;7.30;3.05;;;8.50;77.00;;;;;;5074950;28;20028;-80
2021/12/26 03:21:11;;;;;;;6.40;3.10;;;8.50;76.90;;;;;;5073482;28;20028;-81
2021/12/26 03:23:37;;;;;;;6.80;3.25;;;8.50;76.90;;;;;;5074501;28;20024;-80
2021/12/26 03:26:05;;;;;;;6.65;2.90;;;8.50;76.90;;;;;;5074476;28;20059;-80
2021/12/26 03:28:32;;;;;;;6.80;2.90;;;8.50;77.00;;;;;;5072611;28;20082;-80
2021/12/26 03:30:58;;;;;;;5.97;2.88;;;8.50;77.00;;;;;;5072817;28;20478;-80
2021/12/26 03:33:25;;;;;;;5.93;3.08;;;8.50;77.00;;;;;;5072725;28;20021;-81
2021/12/26 03:35:51;;;;;;;7.47;2.83;;;8.50;77.10;;;;;;5072573;28;20060;-80
2021/12/26 03:38:18;;;;;;;8.77;3.20;;;8.50;76.90;;;;;;5072453;28;20511;-80
2021/12/26 03:40:45;;;;;;;6.97;3.03;;;8.50;76.90;;;;;;5075133;28;20406;-82
2021/12/26 03:43:11;;;;;;;6.53;3.05;;;8.50;77.00;;;;;;5075480;28;20055;-82
2021/12/26 03:45:38;;;;;;;8.45;3.03;;;8.50;76.90;;;;;;5063679;28;20047;-82
2021/12/26 03:48:04;;;;;;;8.48;3.30;;;8.50;76.90;;;;;;5074678;28;20039;-80
2021/12/26 03:50:32;;;;;;;7.07;2.85;;;8.50;76.90;;;;;;5078992;28;20028;-82
2021/12/26 03:52:58;;;;;;;7.80;2.78;;;8.50;77.00;;;;;;5077119;28;20025;-81
2021/12/26 03:55:27;;;;;;;6.00;2.75;;;8.50;76.90;;;;;;5078022;28;20444;-80
2021/12/26 03:57:54;;;;;;;6.68;3.15;;;8.50;76.90;;;;;;5077188;28;20058;-80
2021/12/26 04:00:21;;;;;;;5.78;2.92;;;8.50;77.00;;;;;;5077937;28;20149;-81
2021/12/26 04:02:47;;;;;;;6.97;2.88;;;8.40;76.90;;;;;;5076534;28;20162;-80
2021/12/26 04:05:14;;;;;;;5.85;2.72;;;8.50;76.90;;;;;;5075840;28;20480;-81
2021/12/26 04:07:40;;;;;;;5.80;2.58;;;8.40;76.90;;;;;;5076318;28;20078;-81
2021/12/26 04:10:06;;;;;;;5.53;2.90;;;8.50;77.00;;;;;;5076979;28;20028;-80
2021/12/26 04:12:36;;;;;;;6.53;3.00;;;8.50;76.90;;;;;;5075525;28;20016;-81
2021/12/26 04:15:08;;;;;;;6.72;2.83;;;8.40;76.90;;;;;;5075268;28;20051;-81
2021/12/26 04:17:34;;;;;;;;;;;8.50;76.90;;;;;;5077261;28;20024;-80
2021/12/26 04:20:00;;;;;;;5.95;2.90;;;8.50;76.90;;;;;;5075007;28;19955;-81
2021/12/26 04:22:25;;;;;;;7.07;2.90;;;8.50;76.80;;;;;;5074932;28;20036;-80
2021/12/26 04:24:51;;;;;;;5.90;3.05;;;8.40;76.80;;;;;;5076043;28;20029;-81
2021/12/26 04:27:17;;;;;;;6.40;2.92;;;8.50;76.80;;;;;;5075820;28;20036;-81
2021/12/26 04:29:42;;;;;;;7.07;2.63;;;8.40;76.80;;;;;;5074012;28;20169;-82
2021/12/26 04:32:08;;;;;;;5.50;2.53;;;8.40;76.80;;;;;;5073905;28;20386;-80
2021/12/26 04:34:33;;;;;;;5.43;2.60;;;8.40;76.80;;;;;;5075199;28;20021;-81
2021/12/26 04:36:59;;;;;;;5.97;2.92;;;8.40;76.80;;;;;;5073751;28;20478;-80
2021/12/26 04:39:24;;;;;;;4.75;2.63;;;8.40;76.80;;;;;;5073478;28;20394;-81
2021/12/26 04:41:50;;;;;;;6.15;2.90;;;8.40;76.80;;;;;;5072932;28;20036;-80
2021/12/26 04:44:16;;;;;;;5.65;2.65;;;8.40;76.80;;;;;;5074389;28;20071;-82
2021/12/26 04:46:42;;;;;;;5.85;2.53;;;8.40;76.80;;;;;;5073659;28;20478;-80
2021/12/26 04:49:07;;;;;;;6.63;2.97;;;8.40;76.80;;;;;;5075167;28;20025;-80
2021/12/26 04:51:33;;;;;;;5.95;2.80;;;8.40;76.80;;;;;;5074751;28;20033;-80
2021/12/26 04:53:59;;;;;;;5.22;2.72;;;8.40;76.90;;;;;;5075460;28;20704;-82
2021/12/26 04:56:24;;;;;;;5.93;2.63;;;8.40;76.90;;;;;;5078533;28;20021;-81
2021/12/26 04:58:50;;;;;;;6.00;2.35;;;8.40;76.90;;;;;;5077245;28;20043;-82
2021/12/26 05:01:15;;;;;;;5.50;2.60;;;8.40;76.90;;;;;;5078055;28;20478;-80
2021/12/26 05:03:42;;;;;;;6.13;2.80;;;8.40;77.00;;;;;;5076631;28;20025;-81
2021/12/26 05:06:07;;;;;;;5.97;2.83;;;8.40;76.90;;;;;;5076967;28;20035;-81
2021/12/26 05:08:33;;;;;;;4.97;2.40;;;8.40;76.80;;;;;;5077461;28;20033;-81
2021/12/26 05:10:59;;;;;;;5.47;2.53;;;8.40;76.90;;;;;;5076040;28;20029;-79
2021/12/26 05:13:25;;;;;;;5.63;2.65;;;8.40;76.90;;;;;;5076672;28;20077;-84
2021/12/26 05:15:50;;;;;;;5.30;2.60;;;8.40;76.90;;;;;;5076881;28;20027;-81
2021/12/26 05:18:16;;;;;;;6.33;2.50;;;8.40;76.90;;;;;;5101265;22;20028;-81
2021/12/26 05:20:42;;;;;;;6.30;2.85;;;8.40;76.90;;;;;;5091785;28;20228;-80
2021/12/26 05:23:07;;;;;;;6.32;2.67;;;8.40;76.90;;;;;;5095354;28;20026;-80
2021/12/26 05:25:33;;;;;;;5.10;2.28;;;8.40;76.80;;;;;;5095932;28;20070;-80
2021/12/26 05:27:59;;;;;;;5.93;2.70;;;8.30;77.20;;;;;;5094975;28;20016;-80
2021/12/26 05:30:26;;;;;;;5.28;2.85;;;8.40;76.80;;;;;;5094808;28;20066;-79
2021/12/26 05:32:52;;;;;;;5.50;2.58;;;8.40;76.80;;;;;;5096015;28;20058;-80
2021/12/26 05:35:18;;;;;;;5.63;2.50;;;8.40;76.80;;;;;;5095759;28;20024;-80
2021/12/26 05:37:45;;;;;;;5.45;2.55;;;8.40;76.80;;;;;;5094571;28;20024;-80
2021/12/26 05:40:12;;;;;;;4.65;2.35;;;8.40;76.80;;;;;;5094622;28;20024;-80
2021/12/26 05:42:37;;;;;;;6.20;2.83;;;8.40;76.80;;;;;;5094353;28;20031;-80
2021/12/26 05:45:05;;;;;;;5.78;2.35;;;8.40;76.80;;;;;;5093869;28;20469;-81
2021/12/26 05:47:31;;;;;;;5.05;2.47;;;8.40;76.70;;;;;;5094441;28;20028;-80
2021/12/26 05:49:58;;;;;;;6.55;3.05;;;8.40;76.80;;;;;;5095500;28;20084;-80
2021/12/26 05:52:24;;;;;;;5.00;2.20;;;8.40;76.80;;;;;;5094360;28;20024;-80
2021/12/26 05:54:50;;;;;;;5.20;2.70;;;8.40;76.70;;;;;;5094195;28;20020;-82
2021/12/26 05:57:15;;;;;;;5.32;2.50;;;8.40;76.70;;;;;;5094237;28;20030;-80
2021/12/26 05:59:42;;;;;;;5.28;2.60;;;8.40;76.70;;;;;;5094600;28;20103;-80
2021/12/26 06:02:09;;;;;;;5.43;2.45;;;8.40;76.70;;;;;;5095629;28;20032;-80
2021/12/26 06:04:34;;;;;;;5.40;2.38;;;8.40;76.60;;;;;;5094104;28;20028;-80
2021/12/26 06:07:00;;;;;;;6.00;2.30;;;8.40;76.70;;;;;;5095298;28;20393;-80
2021/12/26 06:09:26;;;;;;;6.47;2.85;;;8.40;76.70;;;;;;5093836;28;20030;-80
2021/12/26 06:11:52;;;;;;;4.63;2.58;;;8.30;76.60;;;;;;5094317;28;20021;-80
2021/12/26 06:14:18;;;;;;;5.75;2.80;;;8.30;76.60;;;;;;5095034;28;20023;-80
2021/12/26 06:16:44;;;;;;;6.95;2.97;;;8.40;76.60;;;;;;5093898;28;20020;-80
2021/12/26 06:19:09;;;;;;;4.90;2.42;;;8.40;76.60;;;;;;5093603;28;20055;-80
2021/12/26 06:21:35;;;;;;;5.25;2.58;;;8.30;76.50;;;;;;5094996;28;20020;-80
2021/12/26 06:24:00;;;;;;;4.55;2.15;;;8.40;76.70;;;;;;5095078;28;20103;-80
2021/12/26 06:26:27;;;;;;;5.55;2.53;;;8.40;76.60;;;;;;5093755;28;20600;-79
2021/12/26 06:28:53;;;;;;;5.63;2.33;;;8.40;76.60;;;;;;5095089;28;20026;-80
2021/12/26 06:31:19;;;;;;;5.05;2.50;;;8.30;76.70;;;;;;5092902;28;20020;-80
2021/12/26 06:33:46;;;;;;;5.57;2.50;;;8.40;76.80;;;;;;5093436;28;20039;-80
2021/12/26 06:36:13;;;;;;;5.07;2.53;;;8.40;76.80;;;;;;5093477;28;20031;-80
2021/12/26 06:38:39;;;;;;;5.82;2.60;;;8.40;76.70;;;;;;5094965;28;20035;-80
2021/12/26 06:41:06;;;;;;;5.43;2.70;;;8.40;76.70;;;;;;5093468;28;20024;-80
2021/12/26 06:43:33;;;;;;;4.82;2.40;;;8.40;76.70;;;;;;5094105;28;20020;-79
2021/12/26 06:45:59;;;;;;;5.32;2.72;;;8.30;76.50;;;;;;5093289;28;20024;-80
2021/12/26 06:48:25;;;;;;;5.00;2.45;;;8.40;76.60;;;;;;5093313;28;20093;-80
2021/12/26 06:50:51;;;;;;;5.82;2.60;;;8.40;76.60;;;;;;5094355;28;20024;-81
2021/12/26 06:53:18;;;;;;;5.28;2.40;;;8.30;76.50;;;;;;5093146;28;20020;-80
2021/12/26 06:55:44;;;;;;;5.78;2.70;;;8.30;76.40;;;;;;5093126;28;20107;-80
2021/12/26 06:58:11;;;;;;;5.57;2.40;;;8.30;76.40;;;;;;5093018;28;20028;-80
2021/12/26 07:00:37;;;;;;;5.57;2.88;;;8.30;76.20;;;;;;5093028;28;20084;-79
2021/12/26 07:03:03;;;;;;;5.45;2.70;;;8.30;76.30;;;;;;5093122;28;20028;-80
2021/12/26 07:05:29;;;;;;;4.75;2.58;;;8.30;76.30;;;;;;5093005;28;20039;-80
2021/12/26 07:07:55;;;;;;;5.00;2.42;;;8.30;76.90;;;;;;5092919;28;20024;-81
2021/12/26 07:10:20;;;;;;;6.00;2.90;;;8.30;76.30;;;;;;5090554;28;20035;-79
2021/12/26 07:12:47;;;;;;;6.47;3.08;;;8.30;76.30;;;;;;5093100;28;20077;-81
2021/12/26 07:15:13;;;;;;;5.18;2.60;;;8.30;76.30;;;;;;5082244;28;20377;-80
2021/12/26 07:17:40;;;;;;;5.88;2.92;;;8.30;76.40;;;;;;5072660;28;20397;-81
2021/12/26 08:09:22;;;;;;;15.40;4.20;;;8.30;76.00;;;;;;5014109;28;20057;-79
2021/12/26 08:14:43;;;;;;;8.75;3.55;;;8.20;71.50;;;;;;5004920;28;20072;-80
2021/12/26 08:17:16;;;;;;;13.48;4.10;;;8.30;72.20;;;;;;5003190;28;20061;-80
2021/12/26 08:20:29;;;;;;;7.97;3.33;;;8.40;73.10;;;;;;5014464;28;20093;-81
2021/12/26 08:23:37;;;;;;;10.80;3.70;;;8.30;73.70;;;;;;5003509;28;20042;-81
2021/12/26 08:26:25;;;;;;;9.48;3.33;;;8.20;74.00;;;;;;5014422;28;20496;-80
2021/12/26 08:38:34;;;;;;;7.45;3.33;;;8.20;74.40;;;;;;4955549;28;20115;-81
2021/12/26 08:41:33;;;;;;;7.20;3.53;;;8.30;74.50;;;;;;4938526;29;20489;-81
2021/12/26 10:28:31;;;;;;;10.45;3.95;;;8.20;71.30;;;;;;4977562;28;20034;-79
2021/12/26 11:16:56;;;;;;;8.15;4.75;;;8.10;68.10;;;;;;5031889;28;20053;-79
2021/12/26 11:19:43;;;;;;;7.45;4.47;;;8.10;69.30;;;;;;5024918;22;20025;-78
2021/12/26 11:22:10;;;;;;;7.72;4.50;;;8.10;69.70;;;;;;5035937;28;20113;-80
2021/12/26 11:24:36;;;;;;;9.00;4.60;;;8.20;70.20;;;;;;5036031;28;20036;-79
2021/12/26 11:27:02;;;;;;;7.53;4.65;;;8.10;70.30;;;;;;5037338;28;20100;-79
2021/12/26 11:29:28;;;;;;;7.95;4.72;;;8.20;70.60;;;;;;5030010;28;20104;-79
2021/12/26 11:31:55;;;;;;;8.82;4.55;;;8.20;70.60;;;;;;5027161;28;20037;-78
2021/12/26 11:34:21;;;;;;;7.18;4.40;;;8.20;70.60;;;;;;5033439;28;20026;-77
2021/12/26 11:36:50;;;;;;;8.23;4.43;;;8.20;70.60;;;;;;5031872;28;20036;-79
2021/12/26 11:39:17;;;;;;;8.60;4.70;;;8.20;70.80;;;;;;5015135;28;20072;-80
2021/12/26 11:42:06;;;;;;;12.70;4.80;;;8.20;70.90;;;;;;5014833;28;20030;-79
2021/12/26 11:44:52;;;;;;;8.20;4.68;;;8.20;71.00;;;;;;5016025;28;20083;-78
2021/12/26 11:47:40;;;;;;;7.82;4.47;;;8.20;71.00;;;;;;5014351;28;20037;-75
2021/12/26 11:50:27;;;;;;;7.82;4.30;;;8.20;71.00;;;;;;5014939;28;20022;-80
2021/12/26 11:53:17;;;;;;;7.70;4.65;;;8.20;71.10;;;;;;5014477;28;20506;-77
2021/12/26 11:55:55;;;;;;;10.55;4.75;;;8.20;71.20;;;;;;5013421;28;20480;-79
2021/12/26 11:58:50;;;;;;;7.32;4.40;;;8.20;71.40;;;;;;5012929;28;20026;-78
2021/12/26 12:01:18;;;;;;;9.02;4.30;;;8.20;71.50;;;;;;5012372;28;20057;-78
2021/12/26 12:03:44;;;;;;;8.90;4.78;;;8.20;71.60;;;;;;5012698;28;20083;-77
2021/12/26 12:06:24;;;;;;;7.93;4.70;;;8.20;71.50;;;;;;5013034;28;20128;-79
2021/12/26 12:08:49;;;;;;;7.60;4.50;;;8.30;71.50;;;;;;5012656;28;20029;-79
2021/12/26 12:11:15;;;;;;;8.88;4.65;;;8.20;71.60;;;;;;5014566;28;20026;-79
2021/12/26 12:13:46;;;;;;;9.07;4.60;;;8.20;71.70;;;;;;5014215;28;20109;-78
2021/12/26 12:16:27;;;;;;;15.57;4.97;;;8.20;71.70;;;;;;5013537;28;20081;-78
2021/12/26 12:19:04;;;;;;;23.85;6.35;;;8.20;71.80;;;;;;5013515;28;20037;-77
2021/12/26 12:21:40;;;;;;;19.90;6.05;;;8.20;71.80;;;;;;5014632;28;20427;-79
2021/12/26 12:24:34;;;;;;;12.02;4.70;;;8.20;71.90;;;;;;5013032;28;20431;-79
2021/12/26 12:27:08;;;;;;;13.20;4.82;;;8.20;71.90;;;;;;5012423;28;20038;-78
2021/12/26 12:29:46;;;;;;;15.10;4.75;;;8.20;72.00;;;;;;5013696;28;20037;-78
2021/12/26 12:32:31;;;;;;;12.80;5.35;;;8.20;71.90;;;;;;5012579;28;20029;-78
2021/12/26 12:35:01;;;;;;;10.32;5.07;;;8.20;71.90;;;;;;5013637;28;20025;-78
2021/12/26 12:37:28;;;;;;;7.95;4.57;;;8.20;71.90;;;;;;5012863;28;20055;-77
2021/12/26 12:40:25;;;;;;;8.77;5.18;;;8.20;72.00;;;;;;5013292;28;20080;-78
2021/12/26 12:43:15;;;;;;;10.05;5.72;;;8.20;72.10;;;;;;5013655;28;20032;-75
2021/12/26 12:45:57;;;;;;;9.00;5.30;;;8.00;63.60;;;;;;5012371;28;20111;-78
2021/12/26 12:48:24;;;;;;;10.73;5.55;;;8.00;64.40;;;;;;5012288;28;20304;-78
2021/12/26 12:50:51;;;;;;;10.82;5.15;;;7.90;65.90;;;;;;5013368;28;20484;-78
2021/12/26 12:53:37;;;;;;;10.32;5.88;;;8.00;67.40;;;;;;5009406;28;20036;-82
2021/12/26 12:56:03;;;;;;;10.85;5.80;;;8.00;68.50;;;;;;5032561;28;20026;-77
2021/12/26 12:58:31;;;;;;;11.13;5.72;;;8.10;68.80;;;;;;5030199;28;20364;-77
2021/12/26 13:00:58;;;;;;;11.32;5.90;;;8.10;69.00;;;;;;5031157;28;20032;-75
2021/12/26 13:03:24;;;;;;;9.90;5.97;;;8.10;69.40;;;;;;5030982;28;20028;-76
2021/12/26 13:05:50;;;;;;;12.32;5.80;;;8.10;69.70;;;;;;5032416;28;20029;-77
2021/12/26 13:08:21;;;;;;;11.57;6.05;;;8.10;69.90;;;;;;5034561;28;20037;-79
2021/12/26 13:10:56;;;;;;;8.35;5.47;;;8.10;70.00;;;;;;5035173;28;20024;-78
2021/12/26 13:13:23;;;;;;;13.52;6.18;;;8.10;70.20;;;;;;5034549;28;20421;-80
2021/12/26 13:16:03;;;;;;;13.95;6.03;;;8.20;70.70;;;;;;5033907;28;20545;-80
2021/12/26 13:18:35;;;;;;;14.18;6.28;;;8.10;70.90;;;;;;5035903;28;20052;-80
2021/12/26 13:21:19;;;;;;;12.77;5.70;;;8.10;70.70;;;;;;5035175;28;20049;-80
2021/12/26 13:23:46;;;;;;;10.70;5.85;;;8.10;70.80;;;;;;5033761;28;20118;-79
2021/12/26 13:26:12;;;;;;;12.25;6.05;;;8.20;70.90;;;;;;5034116;28;20030;-78
2021/12/26 13:28:40;;;;;;;12.15;5.47;;;8.20;70.90;;;;;;5034351;28;20089;-78
2021/12/26 13:31:24;;;;;;;15.70;6.10;;;8.20;71.10;;;;;;5033811;28;20052;-79
2021/12/26 13:33:59;;;;;;;12.98;5.88;;;8.20;71.30;;;;;;5033785;28;20028;-79
2021/12/26 13:36:29;;;;;;;13.13;5.80;;;8.10;71.20;;;;;;5034140;28;20072;-79
2021/12/26 13:38:56;;;;;;;9.73;5.50;;;8.10;71.20;;;;;;5033490;28;20028;-79
2021/12/26 13:41:31;;;;;;;11.07;5.68;;;8.20;71.30;;;;;;5036831;28;20025;-80
2021/12/26 13:44:00;;;;;;;12.25;5.75;;;8.10;70.90;;;;;;5036683;28;20528;-79
2021/12/26 13:46:31;;;;;;;10.20;5.85;;;8.10;71.00;;;;;;5037199;28;20032;-79
2021/12/26 13:48:58;;;;;;;18.60;5.95;;;8.10;71.20;;;;;;5036713;28;20612;-79
2021/12/26 13:51:28;;;;;;;18.42;6.65;;;8.10;71.20;;;;;;5036179;28;20037;-80
2021/12/26 13:54:05;;;;;;;13.15;6.43;;;8.20;71.20;;;;;;5036210;28;20483;-79
2021/12/26 13:56:31;;;;;;;13.32;6.25;;;8.10;71.20;;;;;;5036519;28;20406;-79
2021/12/26 13:58:57;;;;;;;11.88;6.38;;;8.10;71.20;;;;;;5037340;28;20100;-79
2021/12/26 14:01:26;;;;;;;16.35;6.68;;;8.10;71.30;;;;;;5035333;28;20060;-79
2021/12/26 14:03:51;;;;;;;11.90;6.13;;;8.10;71.30;;;;;;5035105;28;20574;-77
2021/12/26 14:06:27;;;;;;;11.88;6.63;;;8.10;71.40;;;;;;5035509;28;20061;-78
2021/12/26 14:08:57;;;;;;;12.23;6.68;;;8.10;71.60;;;;;;5035306;28;20033;-79
2021/12/26 14:11:24;;;;;;;10.85;6.18;;;8.10;71.70;;;;;;5038679;28;20059;-81
2021/12/26 14:13:55;;;;;;;10.90;5.57;;;8.10;71.80;;;;;;5038606;28;20025;-79
2021/12/26 14:16:27;;;;;;;11.60;6.90;;;8.10;71.90;;;;;;5022002;28;20026;-81
2021/12/26 14:18:52;;;;;;;12.25;6.38;;;8.10;72.00;;;;;;5038057;28;20068;-79
2021/12/26 14:21:19;;;;;;;10.00;6.15;;;8.10;72.20;;;;;;5036808;28;20032;-79
2021/12/26 14:23:48;;;;;;;9.57;6.15;;;8.10;72.40;;;;;;5038197;28;20017;-79
2021/12/26 14:26:30;;;;;;;10.65;5.85;;;8.10;72.30;;;;;;5056562;28;20482;-79
2021/12/26 14:29:11;;;;;;;12.18;6.70;;;8.10;72.30;;;;;;5057119;28;20033;-79
2021/12/26 14:31:48;;;;;;;10.52;6.10;;;8.10;72.50;;;;;;5058197;28;20064;-80
2021/12/26 14:34:19;;;;;;;10.15;6.70;;;8.10;72.70;;;;;;5043166;28;20024;-79
2021/12/26 14:37:19;;;;;;;11.10;6.35;;;8.10;72.90;;;;;;5036818;28;20052;-79
2021/12/26 14:39:45;;;;;;;10.35;6.55;;;8.10;73.00;;;;;;5022645;28;20397;-78
2021/12/26 14:42:15;;;;;;;10.30;6.70;;;8.10;73.00;;;;;;5035974;28;20108;-80
2021/12/26 14:44:54;;;;;;;10.23;6.35;;;8.10;73.00;;;;;;5038219;28;20021;-79
2021/12/26 14:47:38;;;;;;;11.02;6.57;;;8.10;73.10;;;;;;5037077;28;20025;-79
2021/12/26 14:50:13;;;;;;;9.95;6.72;;;8.10;73.20;;;;;;5037521;28;20448;-80
2021/12/26 14:52:45;;;;;;;9.75;6.53;;;8.10;73.20;;;;;;5035985;28;20017;-81
2021/12/26 14:55:19;;;;;;;12.45;6.88;;;8.10;73.00;;;;;;5036809;28;20498;-80
2021/12/26 14:57:45;;;;;;;10.23;6.82;;;8.10;73.10;;;;;;5035246;28;20029;-80
2021/12/26 15:00:24;;;;;;;11.77;6.70;;;8.10;73.10;;;;;;5035155;28;20057;-79
2021/12/26 15:02:55;;;;;;;11.00;6.40;;;8.10;73.10;;;;;;5035280;28;20438;-80
2021/12/26 15:05:28;;;;;;;10.17;6.23;;;8.10;73.10;;;;;;5036497;28;20029;-80
2021/12/26 15:07:56;;;;;;;9.88;6.80;;;8.10;73.20;;;;;;5034795;28;20272;-81
2021/12/26 15:10:30;;;;;;;9.27;6.18;;;8.10;73.30;;;;;;5034226;28;20025;-78
2021/12/26 15:12:57;;;;;;;18.35;7.43;;;8.10;73.30;;;;;;5033814;28;20021;-78
2021/12/26 15:15:29;;;;;;;18.25;7.72;;;8.10;73.10;;;;;;5033520;28;20033;-80
2021/12/26 15:18:14;;;;;;;16.73;7.78;;;8.10;70.30;;;;;;5033567;28;20026;-79
2021/12/26 15:20:40;;;;;;;15.43;7.70;;;8.00;71.00;;;;;;5034813;28;20513;-78
2021/12/26 15:23:11;;;;;;;16.63;7.07;;;8.00;72.20;;;;;;5033376;28;20108;-78
2021/12/26 15:25:56;;;;;;;13.88;6.38;;;8.00;72.20;;;;;;5035001;28;20037;-76
2021/12/26 15:28:38;;;;;;;14.73;7.57;;;8.00;72.50;;;;;;5033484;28;20084;-79
2021/12/26 15:31:17;;;;;;;14.90;7.43;;;8.10;72.60;;;;;;5032918;28;20018;-75
2021/12/26 15:33:45;;;;;;;11.23;7.00;;;8.10;72.70;;;;;;5033488;28;20014;-76
2021/12/26 15:36:19;;;;;;;18.55;7.40;;;8.10;72.70;;;;;;5034102;28;20021;-76
2021/12/26 15:38:47;;;;;;;18.00;8.15;;;8.10;72.80;;;;;;5033043;28;20026;-78
2021/12/26 15:41:30;;;;;;;14.27;7.30;;;8.10;72.80;;;;;;5034220;28;20116;-79
2021/12/26 15:43:58;;;;;;;12.05;7.32;;;8.10;72.90;;;;;;5032741;28;20030;-77
2021/12/26 15:46:24;;;;;;;14.00;8.23;;;8.10;72.90;;;;;;5032862;28;20021;-77
2021/12/26 15:48:49;;;;;;;16.10;8.15;;;8.10;72.40;;;;;;5031881;28;20067;-77
2021/12/26 15:51:15;;;;;;;14.38;8.23;;;8.00;71.00;;;;;;5032983;28;20033;-76
2021/12/26 15:53:42;;;;;;;14.23;7.57;;;8.00;71.10;;;;;;5032974;28;20029;-77
2021/12/26 15:56:09;;;;;;;16.55;8.48;;;8.00;71.70;;;;;;5031844;28;20029;-76
2021/12/26 15:58:35;;;;;;;17.50;9.07;;;8.00;71.40;;;;;;5032016;28;20372;-77
2021/12/26 16:01:00;;;;;;;16.20;8.18;;;8.00;70.60;;;;;;5031974;28;20025;-79
2021/12/26 16:03:26;;;;;;;14.70;8.45;;;8.00;71.00;;;;;;5030957;28;20021;-77
2021/12/26 16:05:52;;;;;;;14.60;8.23;;;8.00;71.30;;;;;;5031852;28;20510;-77
2021/12/26 16:08:18;;;;;;;12.60;8.05;;;8.00;71.80;;;;;;5031618;28;20026;-76
2021/12/26 16:10:43;;;;;;;11.77;8.00;;;8.00;72.20;;;;;;5031471;28;20530;-78
2021/12/26 16:13:09;;;;;;;14.27;8.00;;;8.00;72.30;;;;;;5031714;28;20022;-77
2021/12/26 16:15:34;;;;;;;12.55;7.93;;;8.00;72.60;;;;;;5031288;28;20051;-77
2021/12/26 16:18:00;;;;;;;13.43;8.30;;;8.00;72.70;;;;;;5027986;28;20049;-79
2021/12/26 16:20:27;;;;;;;11.68;7.88;;;8.00;73.00;;;;;;5031313;28;20561;-78
2021/12/26 16:22:53;;;;;;;12.52;8.20;;;8.00;73.00;;;;;;5031415;28;20037;-77
2021/12/26 16:25:19;;;;;;;13.85;8.05;;;8.00;73.00;;;;;;5032692;28;20053;-77
2021/12/26 16:27:48;;;;;;;14.20;9.13;;;8.00;73.00;;;;;;5032382;28;20067;-79
2021/12/26 16:30:18;;;;;;;12.55;7.93;;;8.00;73.10;;;;;;5031203;28;20669;-78
2021/12/26 16:32:44;;;;;;;12.32;7.97;;;8.00;73.30;;;;;;5031610;28;20057;-76
2021/12/26 16:35:12;;;;;;;13.00;7.88;;;8.00;73.40;;;;;;5031122;28;20386;-77
2021/12/26 16:37:39;;;;;;;12.40;7.90;;;8.00;73.30;;;;;;5031312;28;20021;-76
2021/12/26 16:40:07;;;;;;;13.30;8.30;;;8.00;73.30;;;;;;5031368;28;20079;-78
2021/12/26 16:42:34;;;;;;;12.18;8.27;;;8.00;73.40;;;;;;5031830;28;20560;-77